Map

Track Data

SID SEASON NUMBER BASIN SUBBASIN NAME ISO_TIME NATURE LAT LON WMO_WIND WMO_PRES WMO_AGENCY TRACK_TYPE DIST2LAND LANDFALL IFLAG USA_AGENCY USA_ATCF_ID USA_LAT USA_LON USA_RECORD USA_STATUS USA_WIND USA_PRES USA_SSHS USA_R34_NE USA_R34_SE USA_R34_SW USA_R34_NW USA_R50_NE USA_R50_SE USA_R50_SW USA_R50_NW USA_R64_NE USA_R64_SE USA_R64_SW USA_R64_NW USA_POCI USA_ROCI USA_RMW USA_EYE TOKYO_LAT TOKYO_LON TOKYO_GRADE TOKYO_WIND TOKYO_PRES TOKYO_R50_DIR TOKYO_R50_LONG TOKYO_R50_SHORT TOKYO_R30_DIR TOKYO_R30_LONG TOKYO_R30_SHORT TOKYO_LAND CMA_LAT CMA_LON CMA_CAT CMA_WIND CMA_PRES HKO_LAT HKO_LON HKO_CAT HKO_WIND HKO_PRES NEWDELHI_LAT NEWDELHI_LON NEWDELHI_GRADE NEWDELHI_WIND NEWDELHI_PRES NEWDELHI_CI NEWDELHI_DP NEWDELHI_POCI REUNION_LAT REUNION_LON REUNION_TYPE REUNION_WIND REUNION_PRES REUNION_TNUM REUNION_CI REUNION_RMW REUNION_R34_NE REUNION_R34_SE REUNION_R34_SW REUNION_R34_NW REUNION_R50_NE REUNION_R50_SE REUNION_R50_SW REUNION_R50_NW REUNION_R64_NE REUNION_R64_SE REUNION_R64_SW REUNION_R64_NW BOM_LAT BOM_LON BOM_TYPE BOM_WIND BOM_PRES BOM_TNUM BOM_CI BOM_RMW BOM_R34_NE BOM_R34_SE BOM_R34_SW BOM_R34_NW BOM_R50_NE BOM_R50_SE BOM_R50_SW BOM_R50_NW BOM_R64_NE BOM_R64_SE BOM_R64_SW BOM_R64_NW BOM_ROCI BOM_POCI BOM_EYE BOM_POS_METHOD BOM_PRES_METHOD NADI_LAT NADI_LON NADI_CAT NADI_WIND NADI_PRES WELLINGTON_LAT WELLINGTON_LON WELLINGTON_WIND WELLINGTON_PRES DS824_LAT DS824_LON DS824_STAGE DS824_WIND DS824_PRES TD9636_LAT TD9636_LON TD9636_STAGE TD9636_WIND TD9636_PRES TD9635_LAT TD9635_LON TD9635_WIND TD9635_PRES TD9635_ROCI NEUMANN_LAT NEUMANN_LON NEUMANN_CLASS NEUMANN_WIND NEUMANN_PRES MLC_LAT MLC_LON MLC_CLASS MLC_WIND MLC_PRES USA_GUST BOM_GUST BOM_GUST_PER REUNION_GUST REUNION_GUST_PER USA_SEAHGT USA_SEARAD_NE USA_SEARAD_SE USA_SEARAD_SW USA_SEARAD_NW STORM_SPEED STORM_DIR
1917087S13147 1917 18 SP EA NOT_NAMED 1917-03-27 23:00:00 NR -13.4000 147.300 main 280 280 __________O___ -1 -13.4000 147.300 7 26 117
1917087S13147 1917 18 SP EA NOT_NAMED 1917-03-28 00:00:00 NR -13.6011 147.699 main 302 302 __________P___ -1 -13.6011 147.699 7 26 118
1917087S13147 1917 18 SP EA NOT_NAMED 1917-03-28 03:00:00 NR -14.2086 148.895 main 396 396 __________P___ -1 -14.2086 148.895 7 26 118
1917087S13147 1917 18 SP EA NOT_NAMED 1917-03-28 06:00:00 NR -14.8391 150.080 main 459 459 __________P___ -1 -14.8391 150.080 7 26 120
1917087S13147 1917 18 SP EA NOT_NAMED 1917-03-28 09:00:00 NR -15.5141 151.243 main 544 544 __________P___ -1 -15.5141 151.243 7 26 122
1917087S13147 1917 18 SP EA NOT_NAMED 1917-03-28 11:00:00 NR -16.0000 152.000 main 588 582 __________O___ -1 -16.0000 152.000 7 26 124
1917087S13147 1917 18 SP EA NOT_NAMED 1917-03-28 12:00:00 NR -16.2556 152.372 main 587 587 __________P___ -1 -16.2556 152.372 7 26 127
1917087S13147 1917 18 SP EA NOT_NAMED 1917-03-28 15:00:00 NR -17.0504 153.452 main 610 610 __________P___ -1 -17.0504 153.452 7 26 128
1917087S13147 1917 18 SP EA NOT_NAMED 1917-03-28 18:00:00 NR -17.8304 154.459 main 649 638 __________P___ -1 -17.8304 154.459 7 24 129
1917087S13147 1917 18 SP EA NOT_NAMED 1917-03-28 21:00:00 NR -18.5228 155.366 main 655 647 __________P___ -1 -18.5228 155.366 7 21 128
1917087S13147 1917 18 SP EA NOT_NAMED 1917-03-28 23:00:00 NR -18.9000 155.900 main 665 665 __________O___ -1 -18.9000 155.900 7 18 125
1917087S13147 1917 18 SP EA NOT_NAMED 1917-03-29 00:00:00 NR -19.0457 156.143 main 675 675 __________P___ -1 -19.0457 156.143 7 14 120
1917087S13147 1917 18 SP EA NOT_NAMED 1917-03-29 03:00:00 NR -19.3762 156.778 main 703 703 __________P___ -1 -19.3762 156.778 7 12 116
1917087S13147 1917 18 SP EA NOT_NAMED 1917-03-29 06:00:00 NR -19.5857 157.308 main 704 651 __________P___ -1 -19.5857 157.308 7 10 110
1917087S13147 1917 18 SP EA NOT_NAMED 1917-03-29 09:00:00 NR -19.7237 157.786 main 651 618 __________P___ -1 -19.7237 157.786 7 9 106
1917087S13147 1917 18 SP EA NOT_NAMED 1917-03-29 11:00:00 NR -19.8000 158.100 main 618 597 __________O___ -1 -19.8000 158.100 7 10 106
1917087S13147 1917 18 SP EA NOT_NAMED 1917-03-29 12:00:00 NR -19.8549 158.281 main 596 543 __________P___ -1 -19.8549 158.281 7 11 106
1917087S13147 1917 18 SP EA NOT_NAMED 1917-03-29 15:00:00 NR -19.9978 158.820 main 543 490 __________P___ -1 -19.9978 158.820 7 10 105
1917087S13147 1917 18 SP EA NOT_NAMED 1917-03-29 18:00:00 NR -20.1176 159.348 main 490 438 __________P___ -1 -20.1176 159.348 7 10 103
1917087S13147 1917 18 SP EA NOT_NAMED 1917-03-29 21:00:00 NR -20.2269 159.864 main 427 396 __________P___ -1 -20.2269 159.864 7 10 103
1917087S13147 1917 18 SP MM NOT_NAMED 1917-03-29 23:00:00 NR -20.3000 160.200 main 396 385 __________O___ -1 -20.3000 160.200 7 10 103
1917087S13147 1917 18 SP MM NOT_NAMED 1917-03-30 00:00:00 NR -20.3403 160.370 main 375 333 __________P___ -1 -20.3403 160.370 7 10 104
1917087S13147 1917 18 SP MM NOT_NAMED 1917-03-30 03:00:00 NR -20.4609 160.871 main 323 283 __________P___ -1 -20.4609 160.871 7 10 105
1917087S13147 1917 18 SP MM NOT_NAMED 1917-03-30 06:00:00 NR -20.5834 161.354 main 272 233 __________P___ -1 -20.5834 161.354 7 9 106
1917087S13147 1917 18 SP MM NOT_NAMED 1917-03-30 09:00:00 NR -20.7108 161.812 main 233 205 __________P___ -1 -20.7108 161.812 7 9 107
1917087S13147 1917 18 SP MM NOT_NAMED 1917-03-30 11:00:00 NR -20.8000 162.100 main 205 195 __________O___ -1 -20.8000 162.100 7 8 109
1917087S13147 1917 18 SP MM NOT_NAMED 1917-03-30 12:00:00 NR -20.8462 162.239 main 195 165 __________P___ -1 -20.8462 162.239 7 8 111
1917087S13147 1917 18 SP MM NOT_NAMED 1917-03-30 15:00:00 NR -20.9904 162.634 main 165 137 __________P___ -1 -20.9904 162.634 7 8 112
1917087S13147 1917 18 SP MM NOT_NAMED 1917-03-30 18:00:00 NR -21.1413 163.007 main 137 127 __________P___ -1 -21.1413 163.007 7 7 114
1917087S13147 1917 18 SP MM NOT_NAMED 1917-03-30 21:00:00 NR -21.2960 163.365 main 117 106 __________P___ -1 -21.2960 163.365 7 7 115
1917087S13147 1917 18 SP MM NOT_NAMED 1917-03-30 23:00:00 NR -21.4000 163.600 main 106 __________O___ -1 -21.4000 163.600 7 7 115

Digital Typhoon Data and Search

About IBTrACS Database

This database is a web-friendly format of International Best Track Archive for Climate Stewardship (IBTrACS), a global best track data archive curated by NOAA dating back to 1842.

Updated: 2021-12-01